sensor_id;sensor_type;location;lat;lon;timestamp;temperature;humidity
46378;DHT22;32083;47.360;9.650;2023-03-01T00:01:21;1.70;99.90
46378;DHT22;32083;47.360;9.650;2023-03-01T00:03:47;1.60;99.90
46378;DHT22;32083;47.360;9.650;2023-03-01T00:06:13;1.60;99.90
46378;DHT22;32083;47.360;9.650;2023-03-01T00:08:42;1.60;99.90
46378;DHT22;32083;47.360;9.650;2023-03-01T00:11:14;1.70;99.90
46378;DHT22;32083;47.360;9.650;2023-03-01T00:13:42;1.60;99.90
46378;DHT22;32083;47.360;9.650;2023-03-01T00:16:11;1.40;99.90
46378;DHT22;32083;47.360;9.650;2023-03-01T00:18:37;1.50;99.90
46378;DHT22;32083;47.360;9.650;2023-03-01T00:21:04;1.50;99.90
46378;DHT22;32083;47.360;9.650;2023-03-01T00:23:33;1.60;99.90
46378;DHT22;32083;47.360;9.650;2023-03-01T00:26:00;1.60;99.90
46378;DHT22;32083;47.360;9.650;2023-03-01T00:28:26;1.70;99.90
46378;DHT22;32083;47.360;9.650;2023-03-01T00:30:52;1.60;99.90
46378;DHT22;32083;47.360;9.650;2023-03-01T00:33:18;1.70;99.90
46378;DHT22;32083;47.360;9.650;2023-03-01T00:35:45;1.60;99.90
46378;DHT22;32083;47.360;9.650;2023-03-01T00:38:11;1.70;99.90
46378;DHT22;32083;47.360;9.650;2023-03-01T00:40:38;1.70;99.90
46378;DHT22;32083;47.360;9.650;2023-03-01T00:43:06;1.70;99.90
46378;DHT22;32083;47.360;9.650;2023-03-01T00:45:32;1.80;99.90
46378;DHT22;32083;47.360;9.650;2023-03-01T00:48:00;1.80;99.90
46378;DHT22;32083;47.360;9.650;2023-03-01T00:50:30;1.90;99.90
46378;DHT22;32083;47.360;9.650;2023-03-01T00:52:56;1.90;99.90
46378;DHT22;32083;47.360;9.650;2023-03-01T00:55:28;2.00;99.90
46378;DHT22;32083;47.360;9.650;2023-03-01T00:57:55;2.00;99.90
46378;DHT22;32083;47.360;9.650;2023-03-01T01:00:23;2.00;99.90
46378;DHT22;32083;47.360;9.650;2023-03-01T01:02:52;2.00;99.90
46378;DHT22;32083;47.360;9.650;2023-03-01T01:05:19;2.00;99.90
46378;DHT22;32083;47.360;9.650;2023-03-01T01:07:46;2.00;99.90
46378;DHT22;32083;47.360;9.650;2023-03-01T01:10:13;2.00;99.90
46378;DHT22;32083;47.360;9.650;2023-03-01T01:12:46;2.00;99.90
46378;DHT22;32083;47.360;9.650;2023-03-01T01:15:12;2.00;99.90
46378;DHT22;32083;47.360;9.650;2023-03-01T01:17:40;2.10;99.90
46378;DHT22;32083;47.360;9.650;2023-03-01T01:20:09;2.00;99.90
46378;DHT22;32083;47.360;9.650;2023-03-01T01:22:37;2.00;99.90
46378;DHT22;32083;47.360;9.650;2023-03-01T01:25:03;1.90;99.90
46378;DHT22;32083;47.360;9.650;2023-03-01T01:27:29;1.90;99.90
46378;DHT22;32083;47.360;9.650;2023-03-01T01:29:55;2.00;99.90
46378;DHT22;32083;47.360;9.650;2023-03-01T01:32:22;2.00;99.90
46378;DHT22;32083;47.360;9.650;2023-03-01T01:34:48;2.00;99.90
46378;DHT22;32083;47.360;9.650;2023-03-01T01:37:14;2.10;99.90
46378;DHT22;32083;47.360;9.650;2023-03-01T01:39:40;2.10;99.90
46378;DHT22;32083;47.360;9.650;2023-03-01T01:42:05;2.10;99.90
46378;DHT22;32083;47.360;9.650;2023-03-01T01:44:33;2.00;99.90
46378;DHT22;32083;47.360;9.650;2023-03-01T01:47:05;2.10;99.90
46378;DHT22;32083;47.360;9.650;2023-03-01T01:52:14;2.00;99.90
46378;DHT22;32083;47.360;9.650;2023-03-01T01:54:50;2.00;99.90
46378;DHT22;32083;47.360;9.650;2023-03-01T01:57:32;2.10;99.90
46378;DHT22;32083;47.360;9.650;2023-03-01T02:00:07;2.10;99.90
46378;DHT22;32083;47.360;9.650;2023-03-01T02:02:39;2.10;99.90
46378;DHT22;32083;47.360;9.650;2023-03-01T02:08:06;2.10;99.90
46378;DHT22;32083;47.360;9.650;2023-03-01T02:10:34;2.10;99.90
46378;DHT22;32083;47.360;9.650;2023-03-01T02:13:02;2.10;99.90
46378;DHT22;32083;47.360;9.650;2023-03-01T02:15:35;2.10;99.90
46378;DHT22;32083;47.360;9.650;2023-03-01T02:18:02;2.10;99.90
46378;DHT22;32083;47.360;9.650;2023-03-01T02:20:44;2.10;99.90
46378;DHT22;32083;47.360;9.650;2023-03-01T02:23:15;2.10;99.90
46378;DHT22;32083;47.360;9.650;2023-03-01T02:28:37;2.10;99.90
46378;DHT22;32083;47.360;9.650;2023-03-01T02:31:09;2.10;99.90
46378;DHT22;32083;47.360;9.650;2023-03-01T02:33:54;2.10;99.90
46378;DHT22;32083;47.360;9.650;2023-03-01T02:36:24;2.10;99.90
46378;DHT22;32083;47.360;9.650;2023-03-01T02:38:55;2.10;99.90
46378;DHT22;32083;47.360;9.650;2023-03-01T02:41:23;2.10;99.90
46378;DHT22;32083;47.360;9.650;2023-03-01T02:43:50;2.00;99.90
46378;DHT22;32083;47.360;9.650;2023-03-01T02:46:41;2.00;99.90
46378;DHT22;32083;47.360;9.650;2023-03-01T02:49:29;2.00;99.90
46378;DHT22;32083;47.360;9.650;2023-03-01T02:52:32;2.00;99.90
46378;DHT22;32083;47.360;9.650;2023-03-01T02:57:31;1.80;99.90
46378;DHT22;32083;47.360;9.650;2023-03-01T03:00:02;1.80;99.90
46378;DHT22;32083;47.360;9.650;2023-03-01T03:02:34;1.80;99.90
46378;DHT22;32083;47.360;9.650;2023-03-01T03:05:10;1.70;99.90
46378;DHT22;32083;47.360;9.650;2023-03-01T03:07:41;1.70;99.90
46378;DHT22;32083;47.360;9.650;2023-03-01T03:10:17;1.70;99.90
46378;DHT22;32083;47.360;9.650;2023-03-01T03:12:49;1.60;99.90
46378;DHT22;32083;47.360;9.650;2023-03-01T03:15:21;1.60;99.90
46378;DHT22;32083;47.360;9.650;2023-03-01T03:17:49;1.70;99.90
46378;DHT22;32083;47.360;9.650;2023-03-01T03:20:17;1.60;99.90
46378;DHT22;32083;47.360;9.650;2023-03-01T03:22:50;1.70;99.90
46378;DHT22;32083;47.360;9.650;2023-03-01T03:25:20;1.60;99.90
46378;DHT22;32083;47.360;9.650;2023-03-01T03:27:48;1.70;99.90
46378;DHT22;32083;47.360;9.650;2023-03-01T03:30:24;1.70;99.90
46378;DHT22;32083;47.360;9.650;2023-03-01T03:32:50;1.70;99.90
46378;DHT22;32083;47.360;9.650;2023-03-01T03:35:40;1.60;99.90
46378;DHT22;32083;47.360;9.650;2023-03-01T03:38:11;1.60;99.90
46378;DHT22;32083;47.360;9.650;2023-03-01T03:40:46;1.60;99.90
46378;DHT22;32083;47.360;9.650;2023-03-01T03:43:21;1.60;99.90
46378;DHT22;32083;47.360;9.650;2023-03-01T03:45:51;1.60;99.90
46378;DHT22;32083;47.360;9.650;2023-03-01T03:48:18;1.60;99.90
46378;DHT22;32083;47.360;9.650;2023-03-01T03:50:49;1.70;99.90
46378;DHT22;32083;47.360;9.650;2023-03-01T03:53:15;1.80;99.90
46378;DHT22;32083;47.360;9.650;2023-03-01T03:55:41;1.70;99.90
46378;DHT22;32083;47.360;9.650;2023-03-01T03:58:10;1.60;99.90
46378;DHT22;32083;47.360;9.650;2023-03-01T04:00:43;1.60;99.90
46378;DHT22;32083;47.360;9.650;2023-03-01T04:03:10;1.50;99.90
46378;DHT22;32083;47.360;9.650;2023-03-01T04:05:38;1.50;99.90
46378;DHT22;32083;47.360;9.650;2023-03-01T04:08:05;1.60;99.90
46378;DHT22;32083;47.360;9.650;2023-03-01T04:10:40;1.50;99.90
46378;DHT22;32083;47.360;9.650;2023-03-01T04:13:09;1.50;99.90
46378;DHT22;32083;47.360;9.650;2023-03-01T04:15:36;1.50;99.90
46378;DHT22;32083;47.360;9.650;2023-03-01T04:18:03;1.50;99.90
46378;DHT22;32083;47.360;9.650;2023-03-01T04:20:34;1.50;99.90
46378;DHT22;32083;47.360;9.650;2023-03-01T04:23:09;1.40;99.90
46378;DHT22;32083;47.360;9.650;2023-03-01T04:25:46;1.40;99.90
46378;DHT22;32083;47.360;9.650;2023-03-01T04:28:23;1.40;99.90
46378;DHT22;32083;47.360;9.650;2023-03-01T04:30:53;1.40;99.90
46378;DHT22;32083;47.360;9.650;2023-03-01T04:33:19;1.30;99.90
46378;DHT22;32083;47.360;9.650;2023-03-01T04:35:48;1.40;99.90
46378;DHT22;32083;47.360;9.650;2023-03-01T04:38:17;1.40;99.90
46378;DHT22;32083;47.360;9.650;2023-03-01T04:40:43;1.40;99.90
46378;DHT22;32083;47.360;9.650;2023-03-01T04:43:10;1.40;99.90
46378;DHT22;32083;47.360;9.650;2023-03-01T04:45:37;1.40;99.90
46378;DHT22;32083;47.360;9.650;2023-03-01T04:48:03;1.40;99.90
46378;DHT22;32083;47.360;9.650;2023-03-01T04:50:29;1.40;99.90
46378;DHT22;32083;47.360;9.650;2023-03-01T04:52:55;1.50;99.90
46378;DHT22;32083;47.360;9.650;2023-03-01T04:55:28;1.50;99.90
46378;DHT22;32083;47.360;9.650;2023-03-01T04:57:55;1.50;99.90
46378;DHT22;32083;47.360;9.650;2023-03-01T05:00:23;1.50;99.90
46378;DHT22;32083;47.360;9.650;2023-03-01T05:05:30;1.60;99.90
46378;DHT22;32083;47.360;9.650;2023-03-01T05:07:59;1.40;99.90
46378;DHT22;32083;47.360;9.650;2023-03-01T05:10:26;1.40;99.90
46378;DHT22;32083;47.360;9.650;2023-03-01T05:12:55;1.40;99.90
46378;DHT22;32083;47.360;9.650;2023-03-01T05:15:24;1.50;99.90
46378;DHT22;32083;47.360;9.650;2023-03-01T05:17:55;1.50;99.90
46378;DHT22;32083;47.360;9.650;2023-03-01T05:20:22;1.50;99.90
46378;DHT22;32083;47.360;9.650;2023-03-01T05:22:49;1.50;99.90
46378;DHT22;32083;47.360;9.650;2023-03-01T05:25:15;1.50;99.90
46378;DHT22;32083;47.360;9.650;2023-03-01T05:27:41;1.50;99.90
46378;DHT22;32083;47.360;9.650;2023-03-01T05:30:10;1.50;99.90
46378;DHT22;32083;47.360;9.650;2023-03-01T05:32:51;1.40;99.90
46378;DHT22;32083;47.360;9.650;2023-03-01T05:35:21;1.30;99.90
46378;DHT22;32083;47.360;9.650;2023-03-01T05:37:49;1.30;99.90
46378;DHT22;32083;47.360;9.650;2023-03-01T05:40:19;1.20;99.90
46378;DHT22;32083;47.360;9.650;2023-03-01T05:42:54;1.30;99.90
46378;DHT22;32083;47.360;9.650;2023-03-01T05:45:23;1.40;99.90
46378;DHT22;32083;47.360;9.650;2023-03-01T05:48:11;1.30;99.90
46378;DHT22;32083;47.360;9.650;2023-03-01T05:50:43;1.30;99.90
46378;DHT22;32083;47.360;9.650;2023-03-01T05:53:16;1.30;99.90
46378;DHT22;32083;47.360;9.650;2023-03-01T05:55:43;1.30;99.90
46378;DHT22;32083;47.360;9.650;2023-03-01T05:58:14;1.30;99.90
46378;DHT22;32083;47.360;9.650;2023-03-01T06:00:46;1.30;99.90
46378;DHT22;32083;47.360;9.650;2023-03-01T06:03:14;1.30;99.90
46378;DHT22;32083;47.360;9.650;2023-03-01T06:05:42;1.30;99.90
46378;DHT22;32083;47.360;9.650;2023-03-01T06:08:10;1.30;99.90
46378;DHT22;32083;47.360;9.650;2023-03-01T06:10:36;1.40;99.90
46378;DHT22;32083;47.360;9.650;2023-03-01T06:13:19;1.40;99.90
46378;DHT22;32083;47.360;9.650;2023-03-01T06:18:21;1.40;99.90
46378;DHT22;32083;47.360;9.650;2023-03-01T06:20:57;1.40;99.90
46378;DHT22;32083;47.360;9.650;2023-03-01T06:23:24;1.40;99.90
46378;DHT22;32083;47.360;9.650;2023-03-01T06:25:51;1.30;99.90
46378;DHT22;32083;47.360;9.650;2023-03-01T06:28:17;1.30;99.90
46378;DHT22;32083;47.360;9.650;2023-03-01T06:30:44;1.30;99.90
46378;DHT22;32083;47.360;9.650;2023-03-01T06:33:10;1.30;99.90
46378;DHT22;32083;47.360;9.650;2023-03-01T06:35:36;1.40;99.90
46378;DHT22;32083;47.360;9.650;2023-03-01T06:38:04;1.40;99.90
46378;DHT22;32083;47.360;9.650;2023-03-01T06:40:32;1.50;99.90
46378;DHT22;32083;47.360;9.650;2023-03-01T06:43:01;1.40;99.90
46378;DHT22;32083;47.360;9.650;2023-03-01T06:45:28;1.50;99.90
46378;DHT22;32083;47.360;9.650;2023-03-01T06:48:06;1.40;99.90
46378;DHT22;32083;47.360;9.650;2023-03-01T06:50:34;1.40;99.90
46378;DHT22;32083;47.360;9.650;2023-03-01T06:53:00;1.40;99.90
46378;DHT22;32083;47.360;9.650;2023-03-01T06:55:31;1.40;99.90
46378;DHT22;32083;47.360;9.650;2023-03-01T06:58:02;1.50;99.90
46378;DHT22;32083;47.360;9.650;2023-03-01T07:00:29;1.40;99.90
46378;DHT22;32083;47.360;9.650;2023-03-01T07:03:00;1.40;99.90
46378;DHT22;32083;47.360;9.650;2023-03-01T07:05:28;1.40;99.90
46378;DHT22;32083;47.360;9.650;2023-03-01T07:07:55;1.50;99.90
46378;DHT22;32083;47.360;9.650;2023-03-01T07:10:23;1.50;99.90
46378;DHT22;32083;47.360;9.650;2023-03-01T07:12:50;1.50;99.90
46378;DHT22;32083;47.360;9.650;2023-03-01T07:15:22;1.50;99.90
46378;DHT22;32083;47.360;9.650;2023-03-01T07:17:50;1.40;99.90
46378;DHT22;32083;47.360;9.650;2023-03-01T07:20:18;1.40;99.90
46378;DHT22;32083;47.360;9.650;2023-03-01T07:22:52;1.50;99.90
46378;DHT22;32083;47.360;9.650;2023-03-01T07:25:24;1.50;99.90
46378;DHT22;32083;47.360;9.650;2023-03-01T07:27:51;1.60;99.90
46378;DHT22;32083;47.360;9.650;2023-03-01T07:30:20;1.60;99.90
46378;DHT22;32083;47.360;9.650;2023-03-01T07:33:11;1.50;99.90
46378;DHT22;32083;47.360;9.650;2023-03-01T07:35:37;1.60;99.90
46378;DHT22;32083;47.360;9.650;2023-03-01T07:38:05;1.50;99.90
46378;DHT22;32083;47.360;9.650;2023-03-01T07:40:36;1.60;99.90
46378;DHT22;32083;47.360;9.650;2023-03-01T07:43:01;1.60;99.90
46378;DHT22;32083;47.360;9.650;2023-03-01T07:45:29;1.60;99.90
46378;DHT22;32083;47.360;9.650;2023-03-01T07:47:57;1.70;99.90
46378;DHT22;32083;47.360;9.650;2023-03-01T07:50:31;1.70;99.90
46378;DHT22;32083;47.360;9.650;2023-03-01T07:52:58;1.60;99.90
46378;DHT22;32083;47.360;9.650;2023-03-01T07:55:25;1.70;99.90
46378;DHT22;32083;47.360;9.650;2023-03-01T07:57:58;1.70;99.90
46378;DHT22;32083;47.360;9.650;2023-03-01T08:00:31;1.60;99.90
46378;DHT22;32083;47.360;9.650;2023-03-01T08:03:25;1.60;99.90
46378;DHT22;32083;47.360;9.650;2023-03-01T08:05:54;1.50;99.90
46378;DHT22;32083;47.360;9.650;2023-03-01T08:08:34;1.60;99.90
46378;DHT22;32083;47.360;9.650;2023-03-01T08:11:16;1.60;99.90
46378;DHT22;32083;47.360;9.650;2023-03-01T08:13:54;1.60;99.90
46378;DHT22;32083;47.360;9.650;2023-03-01T08:16:22;1.70;99.90
46378;DHT22;32083;47.360;9.650;2023-03-01T08:18:54;1.60;99.90
46378;DHT22;32083;47.360;9.650;2023-03-01T08:21:27;1.70;99.90
46378;DHT22;32083;47.360;9.650;2023-03-01T08:24:06;1.70;99.90
46378;DHT22;32083;47.360;9.650;2023-03-01T08:26:36;1.70;99.90
46378;DHT22;32083;47.360;9.650;2023-03-01T08:29:02;1.80;99.90
46378;DHT22;32083;47.360;9.650;2023-03-01T08:31:37;1.90;99.90
46378;DHT22;32083;47.360;9.650;2023-03-01T08:34:06;1.90;99.90
46378;DHT22;32083;47.360;9.650;2023-03-01T08:36:36;1.90;99.90
46378;DHT22;32083;47.360;9.650;2023-03-01T08:39:03;1.90;99.90
46378;DHT22;32083;47.360;9.650;2023-03-01T08:41:29;1.90;99.90
46378;DHT22;32083;47.360;9.650;2023-03-01T08:43:55;2.00;99.90
46378;DHT22;32083;47.360;9.650;2023-03-01T08:46:32;2.00;99.90
46378;DHT22;32083;47.360;9.650;2023-03-01T08:48:59;1.90;99.90
46378;DHT22;32083;47.360;9.650;2023-03-01T08:51:25;2.00;99.90
46378;DHT22;32083;47.360;9.650;2023-03-01T08:53:51;2.00;99.90
46378;DHT22;32083;47.360;9.650;2023-03-01T08:56:18;2.10;99.90
46378;DHT22;32083;47.360;9.650;2023-03-01T08:58:48;2.00;99.90
46378;DHT22;32083;47.360;9.650;2023-03-01T09:01:16;2.10;99.90
46378;DHT22;32083;47.360;9.650;2023-03-01T09:03:43;2.10;99.90
46378;DHT22;32083;47.360;9.650;2023-03-01T09:06:09;2.10;99.90
46378;DHT22;32083;47.360;9.650;2023-03-01T09:08:36;2.20;99.90
46378;DHT22;32083;47.360;9.650;2023-03-01T09:11:04;2.30;99.90
46378;DHT22;32083;47.360;9.650;2023-03-01T09:13:30;2.30;99.90
46378;DHT22;32083;47.360;9.650;2023-03-01T09:16:00;2.40;99.90
46378;DHT22;32083;47.360;9.650;2023-03-01T09:18:26;2.40;99.90
46378;DHT22;32083;47.360;9.650;2023-03-01T09:20:52;2.40;99.90
46378;DHT22;32083;47.360;9.650;2023-03-01T09:23:21;2.40;99.90
46378;DHT22;32083;47.360;9.650;2023-03-01T09:25:49;2.50;99.90
46378;DHT22;32083;47.360;9.650;2023-03-01T09:28:15;2.40;99.90
46378;DHT22;32083;47.360;9.650;2023-03-01T09:30:41;2.40;99.90
46378;DHT22;32083;47.360;9.650;2023-03-01T09:33:06;2.60;99.90
46378;DHT22;32083;47.360;9.650;2023-03-01T09:35:32;2.60;99.90
46378;DHT22;32083;47.360;9.650;2023-03-01T09:37:58;2.60;99.80
46378;DHT22;32083;47.360;9.650;2023-03-01T09:40:26;2.80;99.70
46378;DHT22;32083;47.360;9.650;2023-03-01T09:42:55;2.90;99.60
46378;DHT22;32083;47.360;9.650;2023-03-01T09:45:39;2.90;98.90
46378;DHT22;32083;47.360;9.650;2023-03-01T09:48:16;3.00;99.90
46378;DHT22;32083;47.360;9.650;2023-03-01T09:50:43;3.00;99.80
46378;DHT22;32083;47.360;9.650;2023-03-01T09:53:20;2.90;99.10
46378;DHT22;32083;47.360;9.650;2023-03-01T09:56:12;2.90;99.90
46378;DHT22;32083;47.360;9.650;2023-03-01T10:01:56;2.90;99.10
46378;DHT22;32083;47.360;9.650;2023-03-01T10:04:48;3.00;99.50
46378;DHT22;32083;47.360;9.650;2023-03-01T10:09:55;3.00;98.60
46378;DHT22;32083;47.360;9.650;2023-03-01T10:12:27;2.90;99.50
46378;DHT22;32083;47.360;9.650;2023-03-01T10:15:15;3.00;99.70
46378;DHT22;32083;47.360;9.650;2023-03-01T10:23:10;3.30;99.40
46378;DHT22;32083;47.360;9.650;2023-03-01T10:31:15;3.40;99.00
46378;DHT22;32083;47.360;9.650;2023-03-01T10:33:43;3.50;99.50
46378;DHT22;32083;47.360;9.650;2023-03-01T10:36:09;3.40;98.20
46378;DHT22;32083;47.360;9.650;2023-03-01T10:41:19;3.60;98.80
46378;DHT22;32083;47.360;9.650;2023-03-01T10:43:53;3.60;98.90
46378;DHT22;32083;47.360;9.650;2023-03-01T10:51:41;3.60;98.40
46378;DHT22;32083;47.360;9.650;2023-03-01T10:56:53;3.80;98.90
46378;DHT22;32083;47.360;9.650;2023-03-01T10:59:29;4.00;99.10
46378;DHT22;32083;47.360;9.650;2023-03-01T11:05:01;4.10;99.00
46378;DHT22;32083;47.360;9.650;2023-03-01T11:07:27;4.10;97.30
46378;DHT22;32083;47.360;9.650;2023-03-01T11:09:53;4.00;98.10
46378;DHT22;32083;47.360;9.650;2023-03-01T11:12:20;4.00;96.80
46378;DHT22;32083;47.360;9.650;2023-03-01T11:14:55;3.90;96.90
46378;DHT22;32083;47.360;9.650;2023-03-01T11:17:29;3.70;96.80
46378;DHT22;32083;47.360;9.650;2023-03-01T11:20:24;3.90;98.10
46378;DHT22;32083;47.360;9.650;2023-03-01T11:22:54;4.00;98.70
46378;DHT22;32083;47.360;9.650;2023-03-01T11:25:25;4.10;97.10
46378;DHT22;32083;47.360;9.650;2023-03-01T11:27:53;4.00;96.80
46378;DHT22;32083;47.360;9.650;2023-03-01T11:30:34;4.00;97.50
46378;DHT22;32083;47.360;9.650;2023-03-01T11:33:17;4.00;97.30
46378;DHT22;32083;47.360;9.650;2023-03-01T11:38:26;3.60;98.00
46378;DHT22;32083;47.360;9.650;2023-03-01T11:41:13;3.60;98.30
46378;DHT22;32083;47.360;9.650;2023-03-01T11:44:05;3.70;98.20
46378;DHT22;32083;47.360;9.650;2023-03-01T11:52:11;3.50;97.90
46378;DHT22;32083;47.360;9.650;2023-03-01T12:05:24;3.60;98.40
46378;DHT22;32083;47.360;9.650;2023-03-01T12:10:51;3.70;97.40
46378;DHT22;32083;47.360;9.650;2023-03-01T12:13:33;3.80;97.90
46378;DHT22;32083;47.360;9.650;2023-03-01T12:16:19;3.90;98.20
46378;DHT22;32083;47.360;9.650;2023-03-01T12:24:40;4.30;97.50
46378;DHT22;32083;47.360;9.650;2023-03-01T12:30:21;4.50;97.70
46378;DHT22;32083;47.360;9.650;2023-03-01T12:38:59;4.50;97.10
46378;DHT22;32083;47.360;9.650;2023-03-01T12:44:35;4.60;98.80
46378;DHT22;32083;47.360;9.650;2023-03-01T12:50:58;4.70;96.50
46378;DHT22;32083;47.360;9.650;2023-03-01T12:53:47;4.80;98.40
46378;DHT22;32083;47.360;9.650;2023-03-01T12:56:24;4.90;96.80
46378;DHT22;32083;47.360;9.650;2023-03-01T12:59:15;5.00;97.70
46378;DHT22;32083;47.360;9.650;2023-03-01T13:01:49;5.10;97.30
46378;DHT22;32083;47.360;9.650;2023-03-01T13:07:21;5.00;96.60
46378;DHT22;32083;47.360;9.650;2023-03-01T13:13:00;4.90;97.60
46378;DHT22;32083;47.360;9.650;2023-03-01T13:15:33;4.80;96.60
46378;DHT22;32083;47.360;9.650;2023-03-01T13:18:26;4.90;98.50
46378;DHT22;32083;47.360;9.650;2023-03-01T13:20:54;5.00;98.20
46378;DHT22;32083;47.360;9.650;2023-03-01T13:33:48;4.80;97.00
46378;DHT22;32083;47.360;9.650;2023-03-01T13:39:03;4.90;97.90
46378;DHT22;32083;47.360;9.650;2023-03-01T13:47:14;5.10;97.40
46378;DHT22;32083;47.360;9.650;2023-03-01T13:52:13;5.00;96.80
46378;DHT22;32083;47.360;9.650;2023-03-01T13:54:48;4.80;96.90
46378;DHT22;32083;47.360;9.650;2023-03-01T13:57:33;4.90;96.90
46378;DHT22;32083;47.360;9.650;2023-03-01T13:59:59;4.70;97.30
46378;DHT22;32083;47.360;9.650;2023-03-01T14:02:25;4.60;96.90
46378;DHT22;32083;47.360;9.650;2023-03-01T14:04:59;4.80;98.40
46378;DHT22;32083;47.360;9.650;2023-03-01T14:07:27;4.60;96.40
46378;DHT22;32083;47.360;9.650;2023-03-01T14:10:02;4.80;97.60
46378;DHT22;32083;47.360;9.650;2023-03-01T14:12:55;4.80;96.70
46378;DHT22;32083;47.360;9.650;2023-03-01T14:15:33;4.80;97.40
46378;DHT22;32083;47.360;9.650;2023-03-01T14:18:07;4.90;98.60
46378;DHT22;32083;47.360;9.650;2023-03-01T14:20:42;4.90;98.50
46378;DHT22;32083;47.360;9.650;2023-03-01T14:23:28;4.80;99.10
46378;DHT22;32083;47.360;9.650;2023-03-01T14:25:57;4.90;97.80
46378;DHT22;32083;47.360;9.650;2023-03-01T14:28:29;4.80;99.10
46378;DHT22;32083;47.360;9.650;2023-03-01T14:30:58;4.90;98.50
46378;DHT22;32083;47.360;9.650;2023-03-01T14:33:35;4.80;97.10
46378;DHT22;32083;47.360;9.650;2023-03-01T14:36:06;4.90;99.00
46378;DHT22;32083;47.360;9.650;2023-03-01T14:38:37;4.70;98.40
46378;DHT22;32083;47.360;9.650;2023-03-01T14:41:10;4.70;98.90
46378;DHT22;32083;47.360;9.650;2023-03-01T14:43:37;4.70;99.50
46378;DHT22;32083;47.360;9.650;2023-03-01T14:46:03;4.70;97.90
46378;DHT22;32083;47.360;9.650;2023-03-01T14:48:30;4.60;99.20
46378;DHT22;32083;47.360;9.650;2023-03-01T14:50:56;4.70;99.30
46378;DHT22;32083;47.360;9.650;2023-03-01T14:53:25;4.60;98.50
46378;DHT22;32083;47.360;9.650;2023-03-01T14:55:54;4.40;97.90
46378;DHT22;32083;47.360;9.650;2023-03-01T14:58:23;4.30;98.60
46378;DHT22;32083;47.360;9.650;2023-03-01T15:03:31;4.40;99.50
46378;DHT22;32083;47.360;9.650;2023-03-01T15:06:00;4.50;99.80
46378;DHT22;32083;47.360;9.650;2023-03-01T15:08:27;4.30;98.20
46378;DHT22;32083;47.360;9.650;2023-03-01T15:11:17;4.20;98.60
46378;DHT22;32083;47.360;9.650;2023-03-01T15:13:43;4.30;99.80
46378;DHT22;32083;47.360;9.650;2023-03-01T15:16:15;4.30;99.00
46378;DHT22;32083;47.360;9.650;2023-03-01T15:18:56;4.30;98.90
46378;DHT22;32083;47.360;9.650;2023-03-01T15:21:36;4.20;98.60
46378;DHT22;32083;47.360;9.650;2023-03-01T15:26:56;4.20;99.70
46378;DHT22;32083;47.360;9.650;2023-03-01T15:29:28;4.20;99.30
46378;DHT22;32083;47.360;9.650;2023-03-01T15:32:20;4.20;99.70
46378;DHT22;32083;47.360;9.650;2023-03-01T15:34:48;4.10;99.40
46378;DHT22;32083;47.360;9.650;2023-03-01T15:37:36;4.20;99.90
46378;DHT22;32083;47.360;9.650;2023-03-01T15:40:17;4.20;99.50
46378;DHT22;32083;47.360;9.650;2023-03-01T15:42:43;4.30;99.90
46378;DHT22;32083;47.360;9.650;2023-03-01T15:47:51;4.40;99.60
46378;DHT22;32083;47.360;9.650;2023-03-01T15:52:49;4.30;99.70
46378;DHT22;32083;47.360;9.650;2023-03-01T15:57:46;4.40;99.90
46378;DHT22;32083;47.360;9.650;2023-03-01T16:00:13;4.30;99.50
46378;DHT22;32083;47.360;9.650;2023-03-01T16:02:41;4.20;99.60
46378;DHT22;32083;47.360;9.650;2023-03-01T16:05:37;4.10;98.90
46378;DHT22;32083;47.360;9.650;2023-03-01T16:08:04;4.20;99.50
46378;DHT22;32083;47.360;9.650;2023-03-01T16:10:35;4.20;99.40
46378;DHT22;32083;47.360;9.650;2023-03-01T16:13:01;4.20;99.80
46378;DHT22;32083;47.360;9.650;2023-03-01T16:15:32;4.20;99.90
46378;DHT22;32083;47.360;9.650;2023-03-01T16:18:00;4.20;99.90
46378;DHT22;32083;47.360;9.650;2023-03-01T16:20:27;4.20;99.90
46378;DHT22;32083;47.360;9.650;2023-03-01T16:22:53;4.10;99.90
46378;DHT22;32083;47.360;9.650;2023-03-01T16:25:20;4.10;99.90
46378;DHT22;32083;47.360;9.650;2023-03-01T16:27:48;4.10;99.90
46378;DHT22;32083;47.360;9.650;2023-03-01T16:30:15;4.00;99.90
46378;DHT22;32083;47.360;9.650;2023-03-01T16:32:43;4.00;99.50
46378;DHT22;32083;47.360;9.650;2023-03-01T16:35:12;4.00;99.90
46378;DHT22;32083;47.360;9.650;2023-03-01T16:37:38;4.00;99.90
46378;DHT22;32083;47.360;9.650;2023-03-01T16:40:06;4.00;99.90
46378;DHT22;32083;47.360;9.650;2023-03-01T16:42:36;4.00;99.90
46378;DHT22;32083;47.360;9.650;2023-03-01T16:45:03;4.00;99.90
46378;DHT22;32083;47.360;9.650;2023-03-01T16:47:29;3.90;99.90
46378;DHT22;32083;47.360;9.650;2023-03-01T16:49:55;3.80;99.90
46378;DHT22;32083;47.360;9.650;2023-03-01T16:52:22;3.90;99.90
46378;DHT22;32083;47.360;9.650;2023-03-01T16:54:48;3.90;99.90
46378;DHT22;32083;47.360;9.650;2023-03-01T16:57:14;3.80;99.90
46378;DHT22;32083;47.360;9.650;2023-03-01T16:59:40;3.90;99.90
46378;DHT22;32083;47.360;9.650;2023-03-01T17:02:10;3.90;99.90
46378;DHT22;32083;47.360;9.650;2023-03-01T17:04:36;3.90;99.90
46378;DHT22;32083;47.360;9.650;2023-03-01T17:07:02;3.90;99.90
46378;DHT22;32083;47.360;9.650;2023-03-01T17:09:28;3.90;99.90
46378;DHT22;32083;47.360;9.650;2023-03-01T17:11:54;3.80;99.90
46378;DHT22;32083;47.360;9.650;2023-03-01T17:14:20;3.80;99.90
46378;DHT22;32083;47.360;9.650;2023-03-01T17:16:46;3.90;99.90
46378;DHT22;32083;47.360;9.650;2023-03-01T17:19:12;3.80;99.90
46378;DHT22;32083;47.360;9.650;2023-03-01T17:21:43;3.80;99.90
46378;DHT22;32083;47.360;9.650;2023-03-01T17:24:10;3.90;99.90
46378;DHT22;32083;47.360;9.650;2023-03-01T17:26:37;3.90;99.90
46378;DHT22;32083;47.360;9.650;2023-03-01T17:29:04;3.90;99.90
46378;DHT22;32083;47.360;9.650;2023-03-01T17:31:31;3.90;99.90
46378;DHT22;32083;47.360;9.650;2023-03-01T17:33:58;3.80;99.90
46378;DHT22;32083;47.360;9.650;2023-03-01T17:36:24;3.90;99.90
46378;DHT22;32083;47.360;9.650;2023-03-01T17:38:51;3.80;99.90
46378;DHT22;32083;47.360;9.650;2023-03-01T17:41:17;3.80;99.90
46378;DHT22;32083;47.360;9.650;2023-03-01T17:43:46;3.80;99.90
46378;DHT22;32083;47.360;9.650;2023-03-01T17:46:12;3.80;99.90
46378;DHT22;32083;47.360;9.650;2023-03-01T17:48:38;3.80;99.90
46378;DHT22;32083;47.360;9.650;2023-03-01T17:51:06;3.80;99.90
46378;DHT22;32083;47.360;9.650;2023-03-01T17:53:32;3.90;99.90
46378;DHT22;32083;47.360;9.650;2023-03-01T17:56:01;3.90;99.90
46378;DHT22;32083;47.360;9.650;2023-03-01T17:58:27;3.90;99.90
46378;DHT22;32083;47.360;9.650;2023-03-01T18:00:53;3.90;99.90
46378;DHT22;32083;47.360;9.650;2023-03-01T18:03:19;3.90;99.90
46378;DHT22;32083;47.360;9.650;2023-03-01T18:05:46;4.00;99.90
46378;DHT22;32083;47.360;9.650;2023-03-01T18:08:12;4.00;99.90
46378;DHT22;32083;47.360;9.650;2023-03-01T18:10:39;3.90;99.90
46378;DHT22;32083;47.360;9.650;2023-03-01T18:13:04;3.90;99.90
46378;DHT22;32083;47.360;9.650;2023-03-01T18:15:31;3.90;99.90
46378;DHT22;32083;47.360;9.650;2023-03-01T18:17:58;3.90;99.90